Time;durP1;ratioP1;P1;durP2;ratioP2;P2;SDS_P1;SDS_P2;PMS_P1;PMS_P2;Temp;Humidity;BMP_temperature;BMP_pressure;BME280_temperature;BME280_humidity;BME280_pressure;Samples;Min_cycle;Max_cycle;Signal;HPM_P1;HPM_P2
2023/07/05 00:02:00;;;;;;;9.10;6.22;;;15.80;99.90;;;;;;5090646;28;20059;-64
2023/07/05 00:04:26;;;;;;;8.10;5.75;;;15.70;99.90;;;;;;5090531;28;20048;-64
2023/07/05 00:06:53;;;;;;;9.68;6.20;;;15.80;99.90;;;;;;5090852;28;20044;-64
2023/07/05 00:09:19;;;;;;;12.55;6.47;;;15.70;99.90;;;;;;5090927;28;20048;-64
2023/07/05 00:11:47;;;;;;;7.93;6.07;;;15.80;99.90;;;;;;5090852;28;20055;-64
2023/07/05 00:14:13;;;;;;;11.38;6.60;;;15.80;99.90;;;;;;5093004;28;20060;-64
2023/07/05 00:16:39;;;;;;;7.13;6.25;;;15.70;99.90;;;;;;5094600;28;20075;-65
2023/07/05 00:19:07;;;;;;;9.60;6.57;;;15.70;99.90;;;;;;5094225;28;20459;-63
2023/07/05 00:21:34;;;;;;;8.52;6.40;;;15.80;99.90;;;;;;5094023;28;20040;-65
2023/07/05 00:24:01;;;;;;;10.23;6.72;;;15.80;99.90;;;;;;5094346;28;20055;-64
2023/07/05 00:26:27;;;;;;;9.20;6.93;;;15.70;99.90;;;;;;5094404;28;20113;-65
2023/07/05 00:28:53;;;;;;;10.55;7.07;;;15.80;99.90;;;;;;5094487;28;20105;-63
2023/07/05 00:31:21;;;;;;;9.85;6.47;;;15.80;99.90;;;;;;5094126;28;20055;-65
2023/07/05 00:33:47;;;;;;;9.32;6.18;;;15.80;99.90;;;;;;5090374;28;20103;-64
2023/07/05 00:36:14;;;;;;;10.40;6.53;;;15.70;99.90;;;;;;5074023;28;20054;-64
2023/07/05 00:38:40;;;;;;;11.27;6.35;;;15.80;99.90;;;;;;5056246;28;20128;-64
2023/07/05 00:41:06;;;;;;;12.77;6.78;;;15.80;99.90;;;;;;5073790;28;20049;-65
2023/07/05 00:43:32;;;;;;;11.77;7.60;;;15.80;99.90;;;;;;5073258;28;20049;-64
2023/07/05 00:46:03;;;;;;;11.55;8.15;;;15.80;99.90;;;;;;5073795;28;20059;-64
2023/07/05 00:48:46;;;;;;;11.05;7.55;;;15.70;99.90;;;;;;5056072;28;20041;-64
2023/07/05 00:51:22;;;;;;;11.25;6.85;;;15.70;99.90;;;;;;5073853;28;20044;-64
2023/07/05 00:53:49;;;;;;;12.05;8.32;;;15.70;99.90;;;;;;5072804;28;20052;-65
2023/07/05 00:56:30;;;;;;;14.73;8.55;;;15.60;99.90;;;;;;5073603;28;20063;-64
2023/07/05 00:58:58;;;;;;;12.77;8.48;;;15.50;99.90;;;;;;5073941;28;20106;-65
2023/07/05 01:01:25;;;;;;;13.70;8.68;;;15.50;99.90;;;;;;5055887;28;20047;-66
2023/07/05 01:03:56;;;;;;;14.23;8.25;;;15.50;99.90;;;;;;5073305;28;20044;-65
2023/07/05 01:06:24;;;;;;;11.70;9.13;;;15.40;99.90;;;;;;5073453;28;20044;-63
2023/07/05 01:08:52;;;;;;;13.68;8.60;;;15.40;99.90;;;;;;5056195;28;20067;-63
2023/07/05 01:11:47;;;;;;;14.98;9.68;;;15.30;99.90;;;;;;5056092;28;20113;-64
2023/07/05 01:14:43;;;;;;;13.35;9.60;;;15.40;99.90;;;;;;5035502;28;20045;-64
2023/07/05 01:17:26;;;;;;;15.52;9.55;;;15.30;99.90;;;;;;5015880;28;20064;-64
2023/07/05 01:20:07;;;;;;;13.57;9.95;;;15.20;99.90;;;;;;5053339;28;20052;-63
2023/07/05 01:23:02;;;;;;;14.88;9.65;;;15.20;99.90;;;;;;5062935;28;20036;-64
2023/07/05 01:25:40;;;;;;;15.93;10.50;;;15.20;99.90;;;;;;5055388;28;20056;-64
2023/07/05 01:28:52;;;;;;;11.13;8.95;;;15.20;99.90;;;;;;5073091;28;20411;-64
2023/07/05 01:31:39;;;;;;;15.90;10.45;;;15.20;99.90;;;;;;5073126;28;20055;-64
2023/07/05 01:34:17;;;;;;;13.25;9.85;;;15.10;99.90;;;;;;5078091;28;20487;-64
2023/07/05 01:36:44;;;;;;;14.15;10.55;;;15.10;99.90;;;;;;5074955;28;20453;-63
2023/07/05 01:39:10;;;;;;;14.57;10.30;;;15.10;99.90;;;;;;5093148;28;20037;-64
2023/07/05 01:41:36;;;;;;;14.90;10.18;;;15.10;99.90;;;;;;5093220;28;20044;-65
2023/07/05 01:44:05;;;;;;;14.00;10.52;;;15.10;99.90;;;;;;5075342;28;20044;-65
2023/07/05 01:46:52;;;;;;;13.07;10.70;;;15.10;99.90;;;;;;5093171;28;20048;-64
2023/07/05 01:49:56;;;;;;;15.30;9.68;;;15.00;99.90;;;;;;5092880;28;20055;-65
2023/07/05 01:52:27;;;;;;;14.27;9.50;;;15.10;99.90;;;;;;5092610;28;20444;-64
2023/07/05 01:55:06;;;;;;;14.75;10.20;;;15.00;99.90;;;;;;5093441;28;20055;-64
2023/07/05 01:57:54;;;;;;;14.20;10.98;;;15.10;99.90;;;;;;5075482;28;20054;-65
2023/07/05 02:00:25;;;;;;;13.45;10.25;;;15.10;99.90;;;;;;5075465;28;20048;-64
2023/07/05 02:03:01;;;;;;;14.98;10.57;;;15.10;99.90;;;;;;5074001;28;20392;-64
2023/07/05 02:05:30;;;;;;;15.82;10.82;;;15.10;99.90;;;;;;5092898;28;20056;-64
2023/07/05 02:07:59;;;;;;;16.10;10.77;;;15.00;99.90;;;;;;5093339;28;20075;-64
2023/07/05 02:10:26;;;;;;;15.38;12.02;;;15.00;99.90;;;;;;5075935;28;20459;-65
2023/07/05 02:12:53;;;;;;;19.17;11.50;;;15.00;99.90;;;;;;5092631;28;20047;-63
2023/07/05 02:15:20;;;;;;;17.88;11.40;;;15.00;99.90;;;;;;5092551;28;20109;-65
2023/07/05 02:17:47;;;;;;;16.92;11.68;;;15.00;99.90;;;;;;5093178;28;20078;-64
2023/07/05 02:20:13;;;;;;;14.48;10.85;;;15.00;99.90;;;;;;5093027;28;20055;-64
2023/07/05 02:22:39;;;;;;;22.73;12.02;;;14.80;99.90;;;;;;5092783;28;20048;-65
2023/07/05 02:25:06;;;;;;;15.77;11.38;;;14.80;99.90;;;;;;5075470;28;20063;-65
2023/07/05 02:27:35;;;;;;;16.08;12.00;;;14.90;99.90;;;;;;5092999;28;20504;-64
2023/07/05 02:30:01;;;;;;;16.35;12.05;;;14.90;99.90;;;;;;5074943;28;20055;-65
2023/07/05 02:32:27;;;;;;;17.17;11.90;;;14.80;99.90;;;;;;5091808;28;20039;-65
2023/07/05 02:34:54;;;;;;;15.27;11.60;;;14.90;99.90;;;;;;5091853;28;20048;-65
2023/07/05 02:37:20;;;;;;;15.52;11.75;;;14.90;99.90;;;;;;5092850;28;20104;-64
2023/07/05 02:39:52;;;;;;;15.13;11.60;;;14.80;99.90;;;;;;5092873;28;20047;-65
2023/07/05 02:42:19;;;;;;;16.58;11.75;;;14.80;99.90;;;;;;5074957;28;20384;-66
2023/07/05 02:44:51;;;;;;;15.80;11.73;;;14.90;99.90;;;;;;5093013;28;20110;-65
2023/07/05 02:47:19;;;;;;;;;;;14.90;99.90;;;;;;5058686;28;20044;-65
2023/07/05 02:49:46;;;;;;;16.67;11.45;;;14.90;99.90;;;;;;5093339;28;19924;-65
2023/07/05 02:52:12;;;;;;;17.50;12.70;;;14.80;99.90;;;;;;5092126;28;20460;-65
2023/07/05 02:54:39;;;;;;;15.80;11.10;;;14.80;99.90;;;;;;5092617;28;20043;-66
2023/07/05 02:57:05;;;;;;;16.77;13.25;;;14.90;99.90;;;;;;5092502;28;20063;-65
2023/07/05 02:59:32;;;;;;;17.73;12.10;;;15.00;99.90;;;;;;5091687;28;20452;-65
2023/07/05 03:01:58;;;;;;;17.08;12.50;;;14.90;99.90;;;;;;5091640;28;20052;-65
2023/07/05 03:04:26;;;;;;;17.20;11.32;;;14.90;99.90;;;;;;5092337;28;20052;-66
2023/07/05 03:06:53;;;;;;;16.65;13.00;;;14.90;99.90;;;;;;5091933;28;20460;-65
2023/07/05 03:09:19;;;;;;;17.33;13.02;;;15.00;99.90;;;;;;5092360;28;20059;-65
2023/07/05 03:11:46;;;;;;;17.70;13.32;;;15.00;99.90;;;;;;5091721;28;20457;-64
2023/07/05 03:14:12;;;;;;;18.02;13.68;;;15.10;99.90;;;;;;5092073;28;20468;-65
2023/07/05 03:16:38;;;;;;;15.95;11.98;;;15.10;99.90;;;;;;5092209;28;20048;-64
2023/07/05 03:19:05;;;;;;;16.55;11.93;;;15.10;99.90;;;;;;5092343;28;20044;-65
2023/07/05 03:21:32;;;;;;;16.40;13.10;;;15.20;99.90;;;;;;5091352;28;20062;-64
2023/07/05 03:23:58;;;;;;;13.00;11.48;;;15.20;99.90;;;;;;5090388;28;20051;-64
2023/07/05 03:26:24;;;;;;;15.43;13.52;;;15.20;99.90;;;;;;5091331;28;20299;-64
2023/07/05 03:28:50;;;;;;;17.58;11.93;;;15.20;99.90;;;;;;5091950;28;20115;-64
2023/07/05 03:31:17;;;;;;;17.67;11.93;;;15.20;99.90;;;;;;5091965;28;20059;-65
2023/07/05 03:33:44;;;;;;;15.05;11.82;;;15.30;99.90;;;;;;5090997;28;20480;-65
2023/07/05 03:36:12;;;;;;;12.55;10.32;;;15.20;99.90;;;;;;5073589;28;20048;-64
2023/07/05 03:38:39;;;;;;;13.77;10.77;;;15.20;99.90;;;;;;5091836;28;20052;-65
2023/07/05 03:41:11;;;;;;;11.10;9.43;;;15.30;99.90;;;;;;5091624;28;20055;-65
2023/07/05 03:43:40;;;;;;;12.27;9.85;;;15.30;99.90;;;;;;5091158;28;20802;-66
2023/07/05 03:46:10;;;;;;;12.32;9.70;;;15.40;99.90;;;;;;5073940;28;20113;-65
2023/07/05 03:48:39;;;;;;;14.98;9.25;;;15.40;99.90;;;;;;5077132;28;20052;-64
2023/07/05 03:51:09;;;;;;;12.18;7.25;;;15.40;99.90;;;;;;5077351;28;20460;-65
2023/07/05 03:53:36;;;;;;;9.30;7.22;;;15.50;99.90;;;;;;5095067;28;20047;-65
2023/07/05 03:56:05;;;;;;;8.30;6.57;;;15.40;99.90;;;;;;5095426;28;20052;-65
2023/07/05 03:58:32;;;;;;;10.88;6.82;;;15.50;99.90;;;;;;5095067;28;20048;-65
2023/07/05 04:01:09;;;;;;;9.93;6.63;;;15.50;99.90;;;;;;5095321;28;20058;-64
2023/07/05 04:03:35;;;;;;;7.15;5.82;;;15.60;99.90;;;;;;5094638;28;20055;-65
2023/07/05 04:06:02;;;;;;;7.28;4.18;;;15.60;99.90;;;;;;5094859;28;20083;-64
2023/07/05 04:08:29;;;;;;;7.78;4.57;;;15.60;99.90;;;;;;5095437;28;20047;-65
2023/07/05 04:10:55;;;;;;;6.22;4.28;;;15.60;99.90;;;;;;5076974;28;20047;-64
2023/07/05 04:13:21;;;;;;;5.60;3.92;;;15.60;99.90;;;;;;5094548;28;20467;-65
2023/07/05 04:16:01;;;;;;;6.00;4.07;;;15.60;99.90;;;;;;5095766;28;20113;-64
2023/07/05 04:18:28;;;;;;;5.70;3.78;;;15.50;99.90;;;;;;5094789;28;20380;-64
2023/07/05 04:20:55;;;;;;;6.55;3.60;;;15.40;99.90;;;;;;5076397;28;20056;-64
2023/07/05 04:23:21;;;;;;;6.43;3.85;;;15.30;99.90;;;;;;5093315;28;20059;-64
2023/07/05 04:25:48;;;;;;;5.78;4.13;;;15.20;99.90;;;;;;5094251;28;20055;-65
2023/07/05 04:28:14;;;;;;;7.45;4.22;;;15.10;99.90;;;;;;5094081;28;20452;-64
2023/07/05 04:30:40;;;;;;;7.28;5.15;;;15.00;99.90;;;;;;5094260;28;20052;-64
2023/07/05 04:33:06;;;;;;;6.38;4.70;;;14.90;99.90;;;;;;5076109;28;20055;-64
2023/07/05 04:35:33;;;;;;;6.47;4.90;;;14.80;99.90;;;;;;5093902;28;20052;-64
2023/07/05 04:38:00;;;;;;;7.93;5.18;;;14.80;99.90;;;;;;5094331;28;20044;-65
2023/07/05 04:40:26;;;;;;;6.30;4.93;;;14.70;99.90;;;;;;5076252;28;20500;-65
2023/07/05 04:42:53;;;;;;;8.25;5.28;;;14.70;99.90;;;;;;5093506;28;20040;-65
2023/07/05 04:45:19;;;;;;;6.25;5.13;;;14.70;99.90;;;;;;5093765;28;20472;-65
2023/07/05 04:47:45;;;;;;;7.65;4.93;;;14.60;99.90;;;;;;5093781;28;20388;-64
2023/07/05 04:50:12;;;;;;;7.80;5.22;;;14.70;99.90;;;;;;5093746;28;20044;-64
2023/07/05 04:52:38;;;;;;;6.43;5.10;;;14.70;99.90;;;;;;5058850;28;20048;-64
2023/07/05 04:55:05;;;;;;;8.95;5.95;;;14.60;99.90;;;;;;5094063;28;20098;-65
2023/07/05 04:57:31;;;;;;;7.18;4.80;;;14.70;99.90;;;;;;5075758;28;20182;-64
2023/07/05 05:00:04;;;;;;;6.93;6.00;;;14.60;99.90;;;;;;5092757;28;20464;-64
2023/07/05 05:02:31;;;;;;;6.32;5.57;;;14.70;99.90;;;;;;5088676;28;20118;-64
2023/07/05 05:04:57;;;;;;;8.18;5.40;;;14.70;99.90;;;;;;5069363;28;20047;-64
2023/07/05 05:07:23;;;;;;;6.13;5.07;;;14.70;99.90;;;;;;5078986;28;20354;-64
2023/07/05 05:09:50;;;;;;;6.45;5.15;;;14.60;99.90;;;;;;5082073;28;20051;-64
2023/07/05 05:12:16;;;;;;;7.70;4.80;;;14.70;99.90;;;;;;5082031;28;20039;-64
2023/07/05 05:14:42;;;;;;;7.05;5.13;;;14.70;99.90;;;;;;5082065;28;20048;-64
2023/07/05 05:17:08;;;;;;;6.53;4.78;;;15.20;99.90;;;;;;5075523;28;20052;-65
2023/07/05 05:19:34;;;;;;;5.90;4.45;;;15.30;99.90;;;;;;5069120;28;20110;-64
2023/07/05 05:22:01;;;;;;;6.80;4.18;;;15.20;99.90;;;;;;5073018;28;20048;-64
2023/07/05 05:24:27;;;;;;;6.40;4.78;;;15.20;99.90;;;;;;5083202;28;20049;-64
2023/07/05 05:26:54;;;;;;;6.15;4.55;;;15.10;99.90;;;;;;5083753;28;20094;-63
2023/07/05 05:29:20;;;;;;;6.55;4.80;;;14.90;99.90;;;;;;5072996;28;20102;-64
2023/07/05 05:31:48;;;;;;;6.50;4.60;;;14.90;99.90;;;;;;5075210;28;20407;-64
2023/07/05 05:34:15;;;;;;;5.93;4.75;;;14.80;99.90;;;;;;5074837;28;20420;-65
2023/07/05 05:36:41;;;;;;;6.15;4.22;;;15.00;99.90;;;;;;5092578;28;20109;-64
2023/07/05 05:39:08;;;;;;;6.25;3.83;;;15.00;99.90;;;;;;5092322;28;20119;-64
2023/07/05 05:41:34;;;;;;;6.15;4.75;;;15.00;99.90;;;;;;5092108;28;20059;-64
2023/07/05 05:44:00;;;;;;;6.35;4.28;;;15.00;99.90;;;;;;5077025;28;20110;-64
2023/07/05 05:46:26;;;;;;;7.53;4.25;;;15.00;99.90;;;;;;5072083;28;20114;-64
2023/07/05 05:48:52;;;;;;;7.32;4.28;;;15.00;99.90;;;;;;5078649;28;20048;-64
2023/07/05 05:51:19;;;;;;;5.35;4.00;;;15.00;99.90;;;;;;5082686;28;20353;-64
2023/07/05 05:53:45;;;;;;;6.28;3.90;;;15.10;99.90;;;;;;5091915;28;20105;-63
2023/07/05 05:56:11;;;;;;;8.40;4.15;;;15.50;99.90;;;;;;5092389;28;20074;-63
2023/07/05 05:58:37;;;;;;;7.28;3.60;;;15.90;99.90;;;;;;5085404;28;20463;-65
2023/07/05 06:01:05;;;;;;;7.20;4.25;;;16.80;99.90;;;;;;5074797;28;20044;-65
2023/07/05 06:03:31;;;;;;;5.07;3.97;;;17.20;99.90;;;;;;5081834;28;20098;-64
2023/07/05 06:05:58;;;;;;;5.88;4.10;;;17.20;99.90;;;;;;5080608;28;20052;-63
2023/07/05 06:08:27;;;;;;;5.07;3.78;;;17.10;99.90;;;;;;5064891;28;20048;-64
2023/07/05 06:10:58;;;;;;;6.43;3.70;;;16.60;99.90;;;;;;5079875;28;20048;-63
2023/07/05 06:13:27;;;;;;;6.75;4.35;;;16.10;99.90;;;;;;5082293;28;20050;-63
2023/07/05 06:15:55;;;;;;;6.63;4.00;;;15.90;99.90;;;;;;5081395;28;20056;-64
2023/07/05 06:18:21;;;;;;;5.75;4.05;;;15.80;99.90;;;;;;5054447;28;20060;-63
2023/07/05 06:20:48;;;;;;;6.70;4.15;;;15.80;99.90;;;;;;5092012;28;20075;-65
2023/07/05 06:23:14;;;;;;;6.55;4.38;;;15.70;99.90;;;;;;5091685;28;20044;-64
2023/07/05 06:25:49;;;;;;;6.55;4.03;;;15.60;99.90;;;;;;5088078;28;20060;-66
2023/07/05 06:28:16;;;;;;;4.93;3.90;;;15.60;99.90;;;;;;5092783;28;20048;-64
2023/07/05 06:30:44;;;;;;;6.75;4.45;;;15.70;99.90;;;;;;5074447;28;20047;-64
2023/07/05 06:33:14;;;;;;;5.53;4.50;;;15.90;99.90;;;;;;5092252;28;20052;-65
2023/07/05 06:35:48;;;;;;;6.35;4.30;;;16.10;99.90;;;;;;5091940;28;20071;-64
2023/07/05 06:38:15;;;;;;;7.07;3.97;;;16.10;99.90;;;;;;5092589;28;20044;-63
2023/07/05 06:40:42;;;;;;;6.65;4.13;;;16.10;99.90;;;;;;5074357;28;20487;-64
2023/07/05 06:43:09;;;;;;;5.03;3.70;;;16.00;99.90;;;;;;5091752;28;20040;-64
2023/07/05 06:45:36;;;;;;;6.53;3.70;;;16.00;99.90;;;;;;5074608;28;20051;-63
2023/07/05 06:48:02;;;;;;;6.03;3.53;;;15.90;99.90;;;;;;5092292;28;20048;-62
2023/07/05 06:50:29;;;;;;;7.30;3.50;;;15.90;99.90;;;;;;5091858;28;20056;-64
2023/07/05 06:52:55;;;;;;;4.63;3.33;;;16.00;99.90;;;;;;5092020;28;20116;-63
2023/07/05 06:55:21;;;;;;;7.80;3.47;;;15.90;99.90;;;;;;5092236;28;20055;-63
2023/07/05 06:57:47;;;;;;;4.88;3.03;;;15.90;99.90;;;;;;5092109;28;20536;-65
2023/07/05 07:00:14;;;;;;;5.32;3.20;;;15.70;99.90;;;;;;5091882;28;20105;-63
2023/07/05 07:02:40;;;;;;;6.82;3.08;;;15.70;99.90;;;;;;5091846;28;20056;-64
2023/07/05 07:05:07;;;;;;;4.90;2.90;;;15.60;99.90;;;;;;5091987;28;20048;-63
2023/07/05 07:07:33;;;;;;;5.22;3.40;;;15.40;99.90;;;;;;5091598;28;20361;-64
2023/07/05 07:10:02;;;;;;;3.92;3.28;;;15.30;99.90;;;;;;5091465;28;20097;-63
2023/07/05 07:12:28;;;;;;;6.75;3.92;;;15.10;99.90;;;;;;5091651;28;20459;-64
2023/07/05 07:15:00;;;;;;;6.03;3.83;;;14.90;99.90;;;;;;5074228;28;20058;-64
2023/07/05 07:17:27;;;;;;;5.63;2.40;;;14.60;99.90;;;;;;5091912;28;20117;-63
2023/07/05 07:19:53;;;;;;;5.38;2.65;;;14.30;99.90;;;;;;5091508;28;20054;-63
2023/07/05 07:22:19;;;;;;;4.10;2.80;;;14.20;99.90;;;;;;5093445;28;20055;-64
2023/07/05 07:24:46;;;;;;;5.53;2.60;;;14.10;99.90;;;;;;5096248;28;20044;-64
2023/07/05 07:27:13;;;;;;;3.58;2.00;;;13.80;99.90;;;;;;5077330;28;20118;-64
2023/07/05 07:29:39;;;;;;;5.50;2.10;;;13.60;99.90;;;;;;5079682;28;20311;-64
2023/07/05 07:32:08;;;;;;;2.33;1.60;;;13.30;99.90;;;;;;5078490;28;20052;-63
2023/07/05 07:34:34;;;;;;;3.60;1.70;;;13.20;99.90;;;;;;5095396;28;20067;-64
2023/07/05 07:37:00;;;;;;;4.13;1.80;;;13.00;99.90;;;;;;5077692;28;20109;-64
2023/07/05 07:39:29;;;;;;;2.67;1.45;;;12.90;99.90;;;;;;5094906;28;20051;-63
2023/07/05 07:41:55;;;;;;;3.75;1.80;;;12.80;99.90;;;;;;5095593;28;20048;-63
2023/07/05 07:44:22;;;;;;;3.72;1.70;;;12.80;99.90;;;;;;5095840;28;20441;-63
2023/07/05 07:46:48;;;;;;;3.85;1.85;;;12.80;99.90;;;;;;5095843;28;20067;-63
2023/07/05 07:49:14;;;;;;;4.53;1.70;;;12.80;99.90;;;;;;5067830;28;20109;-63
2023/07/05 07:51:44;;;;;;;2.47;1.30;;;12.80;99.90;;;;;;5065131;28;20372;-64
2023/07/05 07:54:20;;;;;;;2.95;1.60;;;12.70;99.90;;;;;;5068208;28;20048;-63
2023/07/05 07:56:48;;;;;;;1.85;1.20;;;12.80;99.90;;;;;;5092659;28;20487;-63
2023/07/05 07:59:16;;;;;;;2.47;1.35;;;12.80;99.90;;;;;;5077194;28;20051;-64
2023/07/05 08:01:44;;;;;;;2.17;1.23;;;12.80;99.90;;;;;;5077230;28;20064;-64
2023/07/05 08:04:12;;;;;;;4.18;1.48;;;12.80;99.90;;;;;;5091435;28;20047;-64
2023/07/05 08:06:42;;;;;;;3.85;1.50;;;12.80;99.90;;;;;;5077062;28;20056;-64
2023/07/05 08:09:11;;;;;;;2.60;1.42;;;12.70;99.90;;;;;;5094858;28;20056;-64
2023/07/05 08:11:39;;;;;;;2.35;1.40;;;12.80;99.90;;;;;;5077007;28;20055;-64
2023/07/05 08:14:06;;;;;;;2.47;1.50;;;12.80;99.90;;;;;;5070988;28;20110;-63
2023/07/05 08:16:32;;;;;;;2.42;1.65;;;12.80;99.90;;;;;;5056761;28;20044;-64
2023/07/05 08:18:58;;;;;;;3.63;1.75;;;12.80;99.90;;;;;;5056703;28;20064;-64
2023/07/05 08:21:25;;;;;;;4.72;1.77;;;12.70;99.90;;;;;;5056444;28;20052;-63
2023/07/05 08:23:51;;;;;;;3.28;1.83;;;12.60;99.90;;;;;;5090954;28;20054;-64
2023/07/05 08:26:17;;;;;;;5.28;1.80;;;12.60;99.90;;;;;;5094713;28;20044;-64
2023/07/05 08:28:46;;;;;;;5.85;2.00;;;12.60;99.90;;;;;;5091437;28;20053;-63
2023/07/05 08:31:14;;;;;;;3.40;2.00;;;12.50;99.90;;;;;;5056787;28;20048;-64
2023/07/05 08:33:43;;;;;;;4.32;1.90;;;12.50;99.90;;;;;;5088584;28;20063;-65
2023/07/05 08:36:15;;;;;;;5.20;1.98;;;12.50;99.90;;;;;;5077168;28;20048;-64
2023/07/05 08:38:50;;;;;;;5.45;2.03;;;12.40;99.90;;;;;;5094565;28;20044;-63
2023/07/05 08:41:25;;;;;;;5.68;2.03;;;12.40;99.90;;;;;;5094933;28;20116;-64
2023/07/05 08:44:00;;;;;;;5.97;2.55;;;12.50;99.90;;;;;;5094307;28;20114;-63
2023/07/05 08:46:29;;;;;;;7.95;2.88;;;12.60;99.90;;;;;;5094669;28;20055;-64
2023/07/05 08:49:03;;;;;;;4.35;2.70;;;12.50;99.90;;;;;;5076374;28;20039;-64
2023/07/05 08:51:30;;;;;;;6.03;2.70;;;12.50;99.90;;;;;;5077153;28;20059;-65
2023/07/05 08:53:59;;;;;;;8.60;2.38;;;12.50;99.90;;;;;;5093570;28;20052;-65
2023/07/05 08:56:34;;;;;;;11.05;3.20;;;12.50;99.90;;;;;;5094474;28;20121;-64
2023/07/05 08:59:13;;;;;;;8.98;2.78;;;12.60;99.90;;;;;;5084641;28;20393;-65
2023/07/05 09:01:44;;;;;;;8.43;3.20;;;12.60;99.90;;;;;;5073757;28;20044;-65
2023/07/05 09:04:39;;;;;;;7.30;3.22;;;12.60;99.90;;;;;;5075235;28;20380;-63
2023/07/05 09:07:29;;;;;;;10.57;3.65;;;12.70;99.90;;;;;;5093552;28;20051;-63
2023/07/05 09:10:07;;;;;;;14.00;3.15;;;12.60;99.90;;;;;;5073160;28;20059;-63
2023/07/05 09:12:46;;;;;;;10.07;3.40;;;12.50;99.90;;;;;;5045152;28;20058;-63
2023/07/05 09:15:37;;;;;;;10.90;3.72;;;12.60;99.90;;;;;;5093598;28;20048;-65
2023/07/05 09:18:21;;;;;;;9.48;3.67;;;12.60;99.90;;;;;;5093524;28;20105;-64
2023/07/05 09:21:02;;;;;;;12.73;4.97;;;12.50;99.90;;;;;;5093751;28;20419;-64
2023/07/05 09:23:41;;;;;;;11.18;4.20;;;12.50;99.90;;;;;;5092157;28;20143;-65
2023/07/05 09:26:26;;;;;;;10.55;3.60;;;12.50;99.90;;;;;;5074773;28;20044;-62
2023/07/05 09:29:21;;;;;;;9.40;3.22;;;12.60;99.90;;;;;;5091550;28;20075;-64
2023/07/05 09:31:49;;;;;;;11.38;3.72;;;12.60;99.90;;;;;;5038914;28;20523;-67
2023/07/05 09:34:30;;;;;;;10.30;3.50;;;12.60;99.90;;;;;;5067317;28;20067;-65
2023/07/05 09:36:59;;;;;;;9.50;3.40;;;12.60;99.90;;;;;;5054916;28;20049;-66
2023/07/05 09:39:38;;;;;;;7.93;3.97;;;12.60;99.90;;;;;;5054383;28;20461;-66
2023/07/05 09:42:12;;;;;;;7.60;3.10;;;12.70;99.90;;;;;;5054839;28;20429;-65
2023/07/05 09:44:39;;;;;;;11.85;3.00;;;12.70;99.90;;;;;;5054537;28;20052;-67
2023/07/05 09:47:07;;;;;;;9.27;3.00;;;12.70;99.90;;;;;;5054807;28;20078;-65
2023/07/05 09:49:34;;;;;;;7.45;2.50;;;12.70;99.90;;;;;;5053791;28;20041;-65
2023/07/05 09:52:00;;;;;;;7.95;2.78;;;12.70;99.90;;;;;;5068399;28;20099;-64
2023/07/05 09:54:31;;;;;;;7.68;2.65;;;12.70;99.90;;;;;;5045453;28;20044;-64
2023/07/05 09:57:04;;;;;;;10.48;2.90;;;12.70;99.90;;;;;;5072224;28;20107;-65
2023/07/05 09:59:34;;;;;;;8.07;2.67;;;12.70;99.90;;;;;;5054039;28;20106;-67
2023/07/05 10:02:24;;;;;;;7.50;2.60;;;12.80;99.90;;;;;;5059444;28;20056;-65
2023/07/05 10:04:58;;;;;;;7.85;2.95;;;12.80;99.90;;;;;;5043258;28;20496;-66
2023/07/05 10:07:28;;;;;;;10.50;3.53;;;12.70;99.90;;;;;;5056273;28;20059;-67
2023/07/05 10:10:01;;;;;;;10.18;3.40;;;12.70;99.90;;;;;;5053415;28;20357;-67
2023/07/05 10:12:35;;;;;;;11.50;3.67;;;12.80;99.90;;;;;;5037296;28;20453;-65
2023/07/05 10:15:03;;;;;;;6.97;2.90;;;12.70;99.90;;;;;;5034271;28;20052;-67
2023/07/05 10:17:44;;;;;;;9.73;3.38;;;12.80;99.90;;;;;;5039023;28;20358;-66
2023/07/05 10:20:31;;;;;;;9.88;3.60;;;12.70;99.90;;;;;;5017617;28;20079;-66
2023/07/05 10:23:02;;;;;;;8.25;2.80;;;12.70;99.90;;;;;;5043892;28;20054;-65
2023/07/05 10:25:34;;;;;;;9.35;3.28;;;12.80;99.90;;;;;;5044210;28;20037;-68
2023/07/05 10:28:03;;;;;;;9.60;3.47;;;12.80;99.90;;;;;;5051137;28;20049;-65
2023/07/05 10:30:30;;;;;;;10.00;3.53;;;12.70;99.90;;;;;;5051506;28;20053;-66
2023/07/05 10:33:20;;;;;;;11.77;3.70;;;12.70;99.90;;;;;;5042112;28;20107;-68
2023/07/05 10:35:57;;;;;;;10.50;2.95;;;12.90;99.90;;;;;;5056950;28;20052;-65
2023/07/05 10:38:46;;;;;;;8.90;3.33;;;12.90;99.90;;;;;;5056726;28;20077;-65
2023/07/05 10:41:28;;;;;;;10.23;3.72;;;12.80;99.90;;;;;;5034541;28;20055;-64
2023/07/05 10:44:06;;;;;;;9.18;3.88;;;12.80;99.90;;;;;;5049603;28;20044;-65
2023/07/05 10:46:35;;;;;;;11.55;3.80;;;12.90;99.90;;;;;;5053839;28;20044;-66
2023/07/05 10:49:05;;;;;;;10.32;3.33;;;12.90;99.90;;;;;;5052730;28;20056;-65
2023/07/05 10:51:35;;;;;;;8.45;3.10;;;12.90;99.90;;;;;;5020667;28;20056;-62
2023/07/05 10:54:05;;;;;;;6.22;2.63;;;12.80;99.90;;;;;;5054082;28;20060;-65
2023/07/05 10:56:35;;;;;;;7.63;2.67;;;12.90;99.90;;;;;;5052878;28;20048;-65
2023/07/05 10:59:35;;;;;;;5.97;2.80;;;12.80;99.90;;;;;;5050295;28;20052;-65
2023/07/05 11:02:20;;;;;;;8.35;2.53;;;12.60;99.90;;;;;;5040734;28;20049;-64
2023/07/05 11:04:49;;;;;;;8.32;3.03;;;12.60;99.90;;;;;;5018301;28;20445;-64
2023/07/05 11:07:18;;;;;;;6.80;2.85;;;12.60;99.90;;;;;;5001975;28;20053;-64
2023/07/05 11:09:44;;;;;;;6.60;2.70;;;12.50;99.90;;;;;;5033039;28;20045;-64
2023/07/05 11:12:21;;;;;;;9.10;3.17;;;12.60;99.90;;;;;;5035471;28;20045;-63
2023/07/05 11:14:57;;;;;;;10.55;3.53;;;12.60;99.90;;;;;;5037198;28;20045;-64
2023/07/05 11:17:23;;;;;;;8.50;3.00;;;12.60;99.90;;;;;;5070935;28;20083;-64
2023/07/05 11:19:49;;;;;;;9.63;2.70;;;12.70;99.90;;;;;;5052704;28;20118;-64
2023/07/05 11:22:43;;;;;;;7.20;3.05;;;12.70;99.90;;;;;;5037836;28;20052;-64
2023/07/05 11:25:16;;;;;;;8.13;3.00;;;12.70;99.90;;;;;;5054935;28;20040;-64
2023/07/05 11:27:55;;;;;;;8.00;2.45;;;12.60;99.90;;;;;;5051705;28;20049;-64
2023/07/05 11:30:43;;;;;;;6.00;2.47;;;12.60;99.90;;;;;;5053235;28;20360;-64
2023/07/05 11:33:09;;;;;;;9.85;3.30;;;12.60;99.90;;;;;;5053067;28;20116;-64
2023/07/05 11:35:47;;;;;;;7.22;2.42;;;12.70;99.90;;;;;;5088606;28;20047;-64
2023/07/05 11:38:37;;;;;;;6.00;2.88;;;12.70;99.90;;;;;;5054252;28;20049;-65
2023/07/05 11:41:06;;;;;;;10.38;3.30;;;12.70;99.90;;;;;;5051461;28;20053;-63
2023/07/05 11:43:39;;;;;;;10.00;2.70;;;12.70;99.90;;;;;;5076955;28;20063;-63
2023/07/05 11:46:37;;;;;;;9.18;3.30;;;12.70;99.90;;;;;;5091563;28;20084;-64
2023/07/05 11:49:26;;;;;;;6.05;2.95;;;12.80;99.90;;;;;;5073141;28;20047;-66
2023/07/05 11:52:24;;;;;;;9.02;3.30;;;12.90;99.90;;;;;;5078151;28;20040;-65
2023/07/05 11:55:21;;;;;;;11.00;3.75;;;13.00;99.90;;;;;;5025038;28;20059;-63
2023/07/05 11:58:16;;;;;;;11.13;3.47;;;12.90;99.90;;;;;;5032835;28;20060;-66
2023/07/05 12:00:53;;;;;;;9.50;3.92;;;12.90;99.90;;;;;;5033606;28;20045;-65
2023/07/05 12:03:25;;;;;;;11.00;4.28;;;13.10;99.90;;;;;;5043715;28;20060;-65
2023/07/05 12:06:14;;;;;;;12.05;4.40;;;13.10;99.90;;;;;;5052372;28;20465;-64
2023/07/05 12:08:45;;;;;;;11.57;4.85;;;13.20;99.90;;;;;;5054556;28;20051;-65
2023/07/05 12:11:14;;;;;;;11.00;4.68;;;13.20;99.90;;;;;;5056391;28;20416;-65
2023/07/05 12:13:41;;;;;;;8.82;4.07;;;13.20;99.90;;;;;;5086660;28;20056;-64
2023/07/05 12:16:15;;;;;;;7.70;2.85;;;13.20;99.90;;;;;;5094480;28;20048;-64
2023/07/05 12:18:42;;;;;;;13.50;3.40;;;13.30;99.90;;;;;;5076139;28;20047;-64
2023/07/05 12:21:12;;;;;;;12.70;4.50;;;13.40;99.90;;;;;;5094346;28;20051;-65
2023/07/05 12:23:39;;;;;;;12.45;3.95;;;13.30;99.90;;;;;;5063253;28;20053;-65
2023/07/05 12:26:16;;;;;;;13.18;4.15;;;13.40;99.90;;;;;;5056027;28;20052;-64
2023/07/05 12:28:47;;;;;;;10.38;4.07;;;13.40;99.90;;;;;;5039786;28;20056;-66
2023/07/05 12:31:18;;;;;;;11.73;4.00;;;13.70;99.90;;;;;;5055615;28;20053;-64
2023/07/05 12:33:51;;;;;;;8.32;4.30;;;13.80;99.90;;;;;;5052141;28;20077;-65
2023/07/05 12:36:20;;;;;;;11.98;4.07;;;13.90;99.90;;;;;;5075946;28;20127;-66
2023/07/05 12:38:48;;;;;;;12.52;4.60;;;13.90;99.90;;;;;;5075599;28;20056;-63
2023/07/05 12:41:23;;;;;;;16.23;5.38;;;13.80;99.90;;;;;;5076279;28;20066;-64
2023/07/05 12:43:59;;;;;;;18.85;5.35;;;13.90;99.90;;;;;;5060592;28;20483;-64
2023/07/05 12:46:28;;;;;;;11.65;3.90;;;14.00;99.90;;;;;;5055655;28;20104;-65
2023/07/05 12:48:55;;;;;;;9.02;4.00;;;14.20;99.90;;;;;;5055319;28;20374;-65
2023/07/05 12:51:26;;;;;;;13.88;5.07;;;14.20;99.90;;;;;;5072650;28;20044;-65
2023/07/05 12:53:58;;;;;;;7.80;3.72;;;14.40;99.90;;;;;;5073586;28;20055;-65
2023/07/05 12:56:37;;;;;;;9.55;4.55;;;14.40;99.90;;;;;;5039178;28;20453;-65
2023/07/05 12:59:07;;;;;;;11.15;4.68;;;14.40;99.90;;;;;;5055031;28;20048;-65
2023/07/05 13:01:41;;;;;;;10.13;4.10;;;14.50;99.90;;;;;;5054609;28;20437;-66